EBAW

EBAW 121620Z 22011KT 190V250 9999 FEW023 06/02 Q0999 NOSIG

TAF TAF EBAW 251700Z 2518/2606 11007KT CAVOK PROB30 TEMPO 2518/2520 VRB15G30KT 3500 SHRA TSRA

EHWO

EHWO 121625Z AUTO 21010KT 170V240 9999 FEW020 OVC130 07/03 Q0998 BLU

TAF EHWO 120914Z 1210/1222 21010KT 9999 FEW015 SCT030 TEMPO 1210/1215 4500 SHRA FEW012 SCT015 SCT018CB PROB30 TEMPO 1210/1212 22012G22KT 3000 TSRAGS SCT008 BKN012 BKN016CB BECMG 1218/1221 19014G24KT 4000 RA SHRA SCT010 BKN015 SCT018CB

EBBL

EBBL 121638Z 21007KT 9999 FEW020 05/02 Q1000 BLU BLU

TAF EBBL 121541Z 1219/1307 21010KT 9999 FEW015 SCT020 BECMG 1221/1223 21010G20KT 9999 BKN015 OVC020 TEMPO 1222/1304 20015G25KT 3000 SHRA SCT012 TCU OVC015

Always consult the official METAR resources.